sensor_id;sensor_type;location;lat;lon;timestamp;P1;durP1;ratioP1;P2;durP2;ratioP2
28455;SDS011;15682;56.742;38.866;2023-02-11T00:01:14;17.2;;;7.9;;
28455;SDS011;15682;56.742;38.866;2023-02-11T00:03:12;16.5;;;7.0;;
28455;SDS011;15682;56.742;38.866;2023-02-11T00:05:12;21.7;;;7.3;;
28455;SDS011;15682;56.742;38.866;2023-02-11T00:07:11;14.2;;;7.2;;
28455;SDS011;15682;56.742;38.866;2023-02-11T00:09:11;17.0;;;7.3;;
28455;SDS011;15682;56.742;38.866;2023-02-11T00:11:11;22.5;;;7.1;;
28455;SDS011;15682;56.742;38.866;2023-02-11T00:13:11;18.8;;;6.9;;
28455;SDS011;15682;56.742;38.866;2023-02-11T00:15:11;17.3;;;6.7;;
28455;SDS011;15682;56.742;38.866;2023-02-11T00:17:11;17.6;;;6.4;;
28455;SDS011;15682;56.742;38.866;2023-02-11T00:19:11;14.2;;;6.6;;
28455;SDS011;15682;56.742;38.866;2023-02-11T00:21:11;14.2;;;5.4;;
28455;SDS011;15682;56.742;38.866;2023-02-11T00:23:10;17.0;;;6.2;;
28455;SDS011;15682;56.742;38.866;2023-02-11T00:25:10;13.4;;;5.2;;
28455;SDS011;15682;56.742;38.866;2023-02-11T00:27:10;13.8;;;5.5;;
28455;SDS011;15682;56.742;38.866;2023-02-11T00:29:10;17.5;;;6.6;;
28455;SDS011;15682;56.742;38.866;2023-02-11T00:31:10;14.1;;;5.0;;
28455;SDS011;15682;56.742;38.866;2023-02-11T00:33:10;11.5;;;4.9;;
28455;SDS011;15682;56.742;38.866;2023-02-11T00:35:09;12.5;;;5.3;;
28455;SDS011;15682;56.742;38.866;2023-02-11T00:37:09;13.4;;;5.3;;
28455;SDS011;15682;56.742;38.866;2023-02-11T00:39:09;12.2;;;4.6;;
28455;SDS011;15682;56.742;38.866;2023-02-11T00:41:09;11.0;;;4.6;;
28455;SDS011;15682;56.742;38.866;2023-02-11T00:43:09;11.9;;;4.6;;
28455;SDS011;15682;56.742;38.866;2023-02-11T00:45:09;11.2;;;4.3;;
28455;SDS011;15682;56.742;38.866;2023-02-11T00:47:08;11.0;;;4.3;;
28455;SDS011;15682;56.742;38.866;2023-02-11T00:49:08;12.7;;;4.7;;
28455;SDS011;15682;56.742;38.866;2023-02-11T00:51:08;13.0;;;4.5;;
28455;SDS011;15682;56.742;38.866;2023-02-11T00:53:08;13.0;;;4.5;;
28455;SDS011;15682;56.742;38.866;2023-02-11T00:55:08;13.5;;;4.4;;
28455;SDS011;15682;56.742;38.866;2023-02-11T00:57:08;13.2;;;4.2;;
28455;SDS011;15682;56.742;38.866;2023-02-11T00:59:08;16.2;;;4.4;;
28455;SDS011;15682;56.742;38.866;2023-02-11T01:01:07;10.9;;;4.3;;
28455;SDS011;15682;56.742;38.866;2023-02-11T01:03:07;10.9;;;4.5;;
28455;SDS011;15682;56.742;38.866;2023-02-11T01:05:07;10.1;;;3.8;;
28455;SDS011;15682;56.742;38.866;2023-02-11T01:07:07;13.3;;;3.5;;
28455;SDS011;15682;56.742;38.866;2023-02-11T01:09:07;10.0;;;3.9;;
28455;SDS011;15682;56.742;38.866;2023-02-11T01:11:10;11.9;;;3.8;;
28455;SDS011;15682;56.742;38.866;2023-02-11T01:13:07;11.5;;;3.8;;
28455;SDS011;15682;56.742;38.866;2023-02-11T01:15:07;11.3;;;3.4;;
28455;SDS011;15682;56.742;38.866;2023-02-11T01:17:06;8.5;;;3.2;;
28455;SDS011;15682;56.742;38.866;2023-02-11T01:19:06;12.4;;;3.7;;
28455;SDS011;15682;56.742;38.866;2023-02-11T01:21:06;8.7;;;3.6;;
28455;SDS011;15682;56.742;38.866;2023-02-11T01:23:06;13.0;;;3.4;;
28455;SDS011;15682;56.742;38.866;2023-02-11T01:25:06;11.7;;;3.3;;
28455;SDS011;15682;56.742;38.866;2023-02-11T01:27:06;10.6;;;3.4;;
28455;SDS011;15682;56.742;38.866;2023-02-11T01:29:05;12.0;;;2.9;;
28455;SDS011;15682;56.742;38.866;2023-02-11T01:31:05;10.4;;;3.1;;
28455;SDS011;15682;56.742;38.866;2023-02-11T01:33:05;9.6;;;3.3;;
28455;SDS011;15682;56.742;38.866;2023-02-11T01:35:05;11.2;;;3.1;;
28455;SDS011;15682;56.742;38.866;2023-02-11T01:37:05;8.0;;;2.5;;
28455;SDS011;15682;56.742;38.866;2023-02-11T01:39:05;10.9;;;3.0;;
28455;SDS011;15682;56.742;38.866;2023-02-11T01:41:06;9.7;;;3.1;;
28455;SDS011;15682;56.742;38.866;2023-02-11T01:43:05;8.7;;;3.1;;
28455;SDS011;15682;56.742;38.866;2023-02-11T01:47:04;10.4;;;3.1;;
28455;SDS011;15682;56.742;38.866;2023-02-11T01:49:06;10.5;;;2.8;;
28455;SDS011;15682;56.742;38.866;2023-02-11T01:51:05;9.7;;;3.2;;
28455;SDS011;15682;56.742;38.866;2023-02-11T01:53:04;7.8;;;2.6;;
28455;SDS011;15682;56.742;38.866;2023-02-11T01:55:05;10.3;;;2.9;;
28455;SDS011;15682;56.742;38.866;2023-02-11T01:57:04;9.9;;;2.7;;
28455;SDS011;15682;56.742;38.866;2023-02-11T01:59:05;8.3;;;2.6;;
28455;SDS011;15682;56.742;38.866;2023-02-11T02:01:03;9.9;;;2.8;;
28455;SDS011;15682;56.742;38.866;2023-02-11T02:03:04;11.4;;;2.9;;
28455;SDS011;15682;56.742;38.866;2023-02-11T02:05:05;9.7;;;3.3;;
28455;SDS011;15682;56.742;38.866;2023-02-11T02:07:04;8.0;;;2.6;;
28455;SDS011;15682;56.742;38.866;2023-02-11T02:09:04;8.9;;;2.7;;
28455;SDS011;15682;56.742;38.866;2023-02-11T02:11:03;8.3;;;2.3;;
28455;SDS011;15682;56.742;38.866;2023-02-11T02:13:03;14.7;;;3.0;;
28455;SDS011;15682;56.742;38.866;2023-02-11T02:17:02;11.5;;;3.0;;
28455;SDS011;15682;56.742;38.866;2023-02-11T02:19:09;10.2;;;2.9;;
28455;SDS011;15682;56.742;38.866;2023-02-11T02:23:06;8.2;;;2.9;;
28455;SDS011;15682;56.742;38.866;2023-02-11T02:25:08;7.4;;;2.6;;
28455;SDS011;15682;56.742;38.866;2023-02-11T02:31:07;9.5;;;2.7;;
28455;SDS011;15682;56.742;38.866;2023-02-11T02:33:12;8.4;;;2.6;;
28455;SDS011;15682;56.742;38.866;2023-02-11T02:35:03;9.2;;;2.7;;
28455;SDS011;15682;56.742;38.866;2023-02-11T02:37:03;5.2;;;2.4;;
28455;SDS011;15682;56.742;38.866;2023-02-11T02:39:04;10.0;;;2.3;;
28455;SDS011;15682;56.742;38.866;2023-02-11T02:41:02;9.2;;;2.3;;
28455;SDS011;15682;56.742;38.866;2023-02-11T02:43:01;10.0;;;2.6;;
28455;SDS011;15682;56.742;38.866;2023-02-11T02:45:01;8.2;;;2.7;;
28455;SDS011;15682;56.742;38.866;2023-02-11T02:47:02;9.4;;;2.3;;
28455;SDS011;15682;56.742;38.866;2023-02-11T02:49:00;7.9;;;2.7;;
28455;SDS011;15682;56.742;38.866;2023-02-11T02:51:02;9.1;;;2.5;;
28455;SDS011;15682;56.742;38.866;2023-02-11T02:53:11;10.4;;;2.7;;
28455;SDS011;15682;56.742;38.866;2023-02-11T02:55:04;5.2;;;1.8;;
28455;SDS011;15682;56.742;38.866;2023-02-11T02:57:02;9.0;;;2.1;;
28455;SDS011;15682;56.742;38.866;2023-02-11T02:59:04;11.6;;;2.3;;
28455;SDS011;15682;56.742;38.866;2023-02-11T03:01:02;7.9;;;2.2;;
28455;SDS011;15682;56.742;38.866;2023-02-11T03:03:05;6.8;;;2.2;;
28455;SDS011;15682;56.742;38.866;2023-02-11T03:05:01;8.0;;;2.3;;
28455;SDS011;15682;56.742;38.866;2023-02-11T03:07:01;9.2;;;2.4;;
28455;SDS011;15682;56.742;38.866;2023-02-11T03:09:01;9.0;;;2.1;;
28455;SDS011;15682;56.742;38.866;2023-02-11T03:10:59;8.6;;;2.1;;
28455;SDS011;15682;56.742;38.866;2023-02-11T03:12:59;10.6;;;2.5;;
28455;SDS011;15682;56.742;38.866;2023-02-11T03:14:59;8.3;;;2.3;;
28455;SDS011;15682;56.742;38.866;2023-02-11T03:16:59;6.7;;;2.3;;
28455;SDS011;15682;56.742;38.866;2023-02-11T03:19:00;9.1;;;1.9;;
28455;SDS011;15682;56.742;38.866;2023-02-11T03:20:58;9.2;;;2.1;;
28455;SDS011;15682;56.742;38.866;2023-02-11T03:23:00;10.7;;;2.0;;
28455;SDS011;15682;56.742;38.866;2023-02-11T03:24:58;6.7;;;1.9;;
28455;SDS011;15682;56.742;38.866;2023-02-11T03:27:00;7.1;;;2.2;;
28455;SDS011;15682;56.742;38.866;2023-02-11T03:28:59;8.8;;;2.1;;
28455;SDS011;15682;56.742;38.866;2023-02-11T03:31:01;10.5;;;2.5;;
28455;SDS011;15682;56.742;38.866;2023-02-11T03:32:59;7.6;;;2.2;;
28455;SDS011;15682;56.742;38.866;2023-02-11T03:34:58;7.9;;;2.1;;
28455;SDS011;15682;56.742;38.866;2023-02-11T03:36:58;6.4;;;1.8;;
28455;SDS011;15682;56.742;38.866;2023-02-11T03:38:57;8.9;;;2.1;;
28455;SDS011;15682;56.742;38.866;2023-02-11T03:40:57;8.4;;;2.1;;
28455;SDS011;15682;56.742;38.866;2023-02-11T03:42:57;6.0;;;2.0;;
28455;SDS011;15682;56.742;38.866;2023-02-11T03:44:57;10.5;;;2.5;;
28455;SDS011;15682;56.742;38.866;2023-02-11T03:46:57;10.0;;;2.3;;
28455;SDS011;15682;56.742;38.866;2023-02-11T03:48:58;7.6;;;2.2;;
28455;SDS011;15682;56.742;38.866;2023-02-11T03:50:56;7.6;;;2.2;;
28455;SDS011;15682;56.742;38.866;2023-02-11T03:52:56;6.7;;;2.1;;
28455;SDS011;15682;56.742;38.866;2023-02-11T03:54:56;6.4;;;2.1;;
28455;SDS011;15682;56.742;38.866;2023-02-11T03:56:57;9.0;;;2.4;;
28455;SDS011;15682;56.742;38.866;2023-02-11T03:58:56;8.9;;;2.3;;
28455;SDS011;15682;56.742;38.866;2023-02-11T04:00:55;7.4;;;2.0;;
28455;SDS011;15682;56.742;38.866;2023-02-11T04:02:55;6.2;;;1.8;;
28455;SDS011;15682;56.742;38.866;2023-02-11T04:04:55;6.5;;;2.1;;
28455;SDS011;15682;56.742;38.866;2023-02-11T04:06:55;8.5;;;2.2;;
28455;SDS011;15682;56.742;38.866;2023-02-11T04:08:55;7.9;;;1.9;;
28455;SDS011;15682;56.742;38.866;2023-02-11T04:10:55;8.4;;;2.2;;
28455;SDS011;15682;56.742;38.866;2023-02-11T04:12:55;6.7;;;2.0;;
28455;SDS011;15682;56.742;38.866;2023-02-11T04:14:55;9.5;;;1.9;;
28455;SDS011;15682;56.742;38.866;2023-02-11T04:16:54;6.8;;;2.0;;
28455;SDS011;15682;56.742;38.866;2023-02-11T04:18:54;9.6;;;2.0;;
28455;SDS011;15682;56.742;38.866;2023-02-11T04:20:54;7.9;;;2.2;;
28455;SDS011;15682;56.742;38.866;2023-02-11T04:22:54;9.7;;;1.9;;
28455;SDS011;15682;56.742;38.866;2023-02-11T04:24:54;5.8;;;1.8;;
28455;SDS011;15682;56.742;38.866;2023-02-11T04:26:54;8.4;;;2.2;;
28455;SDS011;15682;56.742;38.866;2023-02-11T04:28:54;6.5;;;1.8;;
28455;SDS011;15682;56.742;38.866;2023-02-11T04:30:54;7.3;;;2.1;;
28455;SDS011;15682;56.742;38.866;2023-02-11T04:32:53;8.7;;;2.0;;
28455;SDS011;15682;56.742;38.866;2023-02-11T04:34:53;5.7;;;1.5;;
28455;SDS011;15682;56.742;38.866;2023-02-11T04:36:53;8.4;;;1.8;;
28455;SDS011;15682;56.742;38.866;2023-02-11T04:38:53;9.1;;;2.4;;
28455;SDS011;15682;56.742;38.866;2023-02-11T04:40:53;8.1;;;2.0;;
28455;SDS011;15682;56.742;38.866;2023-02-11T04:42:53;8.8;;;2.0;;
28455;SDS011;15682;56.742;38.866;2023-02-11T04:44:53;7.1;;;1.9;;
28455;SDS011;15682;56.742;38.866;2023-02-11T04:46:53;9.7;;;2.4;;
28455;SDS011;15682;56.742;38.866;2023-02-11T04:48:52;7.2;;;2.3;;
28455;SDS011;15682;56.742;38.866;2023-02-11T04:50:52;7.9;;;1.9;;
28455;SDS011;15682;56.742;38.866;2023-02-11T04:52:52;10.3;;;2.2;;
28455;SDS011;15682;56.742;38.866;2023-02-11T04:54:52;9.0;;;2.1;;
28455;SDS011;15682;56.742;38.866;2023-02-11T04:56:52;8.8;;;1.9;;
28455;SDS011;15682;56.742;38.866;2023-02-11T04:58:52;8.4;;;2.2;;
28455;SDS011;15682;56.742;38.866;2023-02-11T05:00:52;31.3;;;4.1;;
28455;SDS011;15682;56.742;38.866;2023-02-11T05:02:51;19.8;;;3.5;;
28455;SDS011;15682;56.742;38.866;2023-02-11T05:04:51;18.5;;;2.7;;
28455;SDS011;15682;56.742;38.866;2023-02-11T05:06:51;10.1;;;2.5;;
28455;SDS011;15682;56.742;38.866;2023-02-11T05:08:51;33.4;;;5.5;;
28455;SDS011;15682;56.742;38.866;2023-02-11T05:10:51;9.2;;;2.3;;
28455;SDS011;15682;56.742;38.866;2023-02-11T05:12:51;7.5;;;1.9;;
28455;SDS011;15682;56.742;38.866;2023-02-11T05:14:51;7.5;;;1.8;;
28455;SDS011;15682;56.742;38.866;2023-02-11T05:16:51;8.7;;;1.9;;
28455;SDS011;15682;56.742;38.866;2023-02-11T05:18:50;6.4;;;1.7;;
28455;SDS011;15682;56.742;38.866;2023-02-11T05:20:50;6.3;;;1.6;;
28455;SDS011;15682;56.742;38.866;2023-02-11T05:22:50;9.4;;;2.0;;
28455;SDS011;15682;56.742;38.866;2023-02-11T05:24:50;7.6;;;1.9;;
28455;SDS011;15682;56.742;38.866;2023-02-11T05:26:50;4.7;;;1.5;;
28455;SDS011;15682;56.742;38.866;2023-02-11T05:28:50;6.7;;;1.6;;
28455;SDS011;15682;56.742;38.866;2023-02-11T05:30:50;8.1;;;1.6;;
28455;SDS011;15682;56.742;38.866;2023-02-11T05:32:49;9.3;;;1.9;;
28455;SDS011;15682;56.742;38.866;2023-02-11T05:34:49;6.7;;;1.4;;
28455;SDS011;15682;56.742;38.866;2023-02-11T05:36:49;8.2;;;2.0;;
28455;SDS011;15682;56.742;38.866;2023-02-11T05:38:49;10.1;;;2.1;;
28455;SDS011;15682;56.742;38.866;2023-02-11T05:40:49;6.1;;;2.1;;
28455;SDS011;15682;56.742;38.866;2023-02-11T05:42:49;7.9;;;2.1;;
28455;SDS011;15682;56.742;38.866;2023-02-11T05:44:48;7.1;;;1.6;;
28455;SDS011;15682;56.742;38.866;2023-02-11T05:46:48;6.9;;;1.8;;
28455;SDS011;15682;56.742;38.866;2023-02-11T05:48:48;6.0;;;1.7;;
28455;SDS011;15682;56.742;38.866;2023-02-11T05:50:48;6.9;;;1.7;;
28455;SDS011;15682;56.742;38.866;2023-02-11T05:52:48;5.6;;;1.4;;
28455;SDS011;15682;56.742;38.866;2023-02-11T05:54:48;7.9;;;1.3;;
28455;SDS011;15682;56.742;38.866;2023-02-11T05:56:48;10.1;;;1.8;;
28455;SDS011;15682;56.742;38.866;2023-02-11T05:58:47;6.7;;;1.7;;
28455;SDS011;15682;56.742;38.866;2023-02-11T06:00:47;7.4;;;1.7;;
28455;SDS011;15682;56.742;38.866;2023-02-11T06:02:47;6.6;;;1.5;;
28455;SDS011;15682;56.742;38.866;2023-02-11T06:04:47;7.2;;;2.0;;
28455;SDS011;15682;56.742;38.866;2023-02-11T06:06:47;12.9;;;2.4;;
28455;SDS011;15682;56.742;38.866;2023-02-11T06:08:47;9.6;;;1.9;;
28455;SDS011;15682;56.742;38.866;2023-02-11T06:10:47;4.8;;;1.4;;
28455;SDS011;15682;56.742;38.866;2023-02-11T06:12:47;9.3;;;2.0;;
28455;SDS011;15682;56.742;38.866;2023-02-11T06:14:46;8.5;;;1.4;;
28455;SDS011;15682;56.742;38.866;2023-02-11T06:16:46;7.5;;;1.3;;
28455;SDS011;15682;56.742;38.866;2023-02-11T06:18:46;8.0;;;1.6;;
28455;SDS011;15682;56.742;38.866;2023-02-11T06:20:46;8.6;;;1.8;;
28455;SDS011;15682;56.742;38.866;2023-02-11T06:22:46;8.0;;;1.4;;
28455;SDS011;15682;56.742;38.866;2023-02-11T06:24:46;8.2;;;1.7;;
28455;SDS011;15682;56.742;38.866;2023-02-11T06:26:46;6.6;;;1.8;;
28455;SDS011;15682;56.742;38.866;2023-02-11T06:28:46;6.5;;;1.7;;
28455;SDS011;15682;56.742;38.866;2023-02-11T06:30:45;8.3;;;1.8;;
28455;SDS011;15682;56.742;38.866;2023-02-11T06:32:45;6.9;;;1.6;;
28455;SDS011;15682;56.742;38.866;2023-02-11T06:34:45;6.8;;;1.5;;
28455;SDS011;15682;56.742;38.866;2023-02-11T06:36:45;9.1;;;1.6;;
28455;SDS011;15682;56.742;38.866;2023-02-11T06:38:45;6.8;;;1.4;;
28455;SDS011;15682;56.742;38.866;2023-02-11T06:40:46;9.1;;;1.7;;
28455;SDS011;15682;56.742;38.866;2023-02-11T06:42:44;6.5;;;1.4;;
28455;SDS011;15682;56.742;38.866;2023-02-11T06:44:44;6.5;;;1.4;;
28455;SDS011;15682;56.742;38.866;2023-02-11T06:46:44;6.9;;;1.3;;
28455;SDS011;15682;56.742;38.866;2023-02-11T06:48:44;6.6;;;1.3;;
28455;SDS011;15682;56.742;38.866;2023-02-11T06:50:44;7.9;;;1.8;;
28455;SDS011;15682;56.742;38.866;2023-02-11T06:52:44;6.3;;;1.6;;
28455;SDS011;15682;56.742;38.866;2023-02-11T06:54:44;6.9;;;1.6;;
28455;SDS011;15682;56.742;38.866;2023-02-11T06:56:43;6.5;;;1.5;;
28455;SDS011;15682;56.742;38.866;2023-02-11T06:58:43;7.8;;;1.7;;
28455;SDS011;15682;56.742;38.866;2023-02-11T07:00:43;6.5;;;1.8;;
28455;SDS011;15682;56.742;38.866;2023-02-11T07:02:43;6.7;;;1.5;;
28455;SDS011;15682;56.742;38.866;2023-02-11T07:04:43;7.3;;;1.4;;
28455;SDS011;15682;56.742;38.866;2023-02-11T07:06:43;7.9;;;1.5;;
28455;SDS011;15682;56.742;38.866;2023-02-11T07:08:43;8.0;;;1.3;;
28455;SDS011;15682;56.742;38.866;2023-02-11T07:10:43;5.8;;;1.3;;
28455;SDS011;15682;56.742;38.866;2023-02-11T07:12:42;8.2;;;1.6;;
28455;SDS011;15682;56.742;38.866;2023-02-11T07:14:42;5.9;;;1.3;;
28455;SDS011;15682;56.742;38.866;2023-02-11T07:16:42;9.3;;;1.6;;
28455;SDS011;15682;56.742;38.866;2023-02-11T07:18:43;6.2;;;1.3;;
28455;SDS011;15682;56.742;38.866;2023-02-11T07:20:42;8.0;;;1.9;;
28455;SDS011;15682;56.742;38.866;2023-02-11T07:22:42;9.0;;;1.4;;
28455;SDS011;15682;56.742;38.866;2023-02-11T07:24:42;8.2;;;1.5;;
28455;SDS011;15682;56.742;38.866;2023-02-11T07:26:41;5.2;;;1.5;;
28455;SDS011;15682;56.742;38.866;2023-02-11T07:28:42;7.2;;;1.4;;
28455;SDS011;15682;56.742;38.866;2023-02-11T07:30:41;5.7;;;1.4;;
28455;SDS011;15682;56.742;38.866;2023-02-11T07:32:41;7.0;;;1.9;;
28455;SDS011;15682;56.742;38.866;2023-02-11T07:34:41;7.8;;;1.8;;
28455;SDS011;15682;56.742;38.866;2023-02-11T07:36:41;7.9;;;1.4;;
28455;SDS011;15682;56.742;38.866;2023-02-11T07:38:41;4.9;;;1.3;;
28455;SDS011;15682;56.742;38.866;2023-02-11T07:40:41;4.9;;;1.4;;
28455;SDS011;15682;56.742;38.866;2023-02-11T07:42:40;11.0;;;2.0;;
28455;SDS011;15682;56.742;38.866;2023-02-11T07:44:40;8.2;;;1.4;;
28455;SDS011;15682;56.742;38.866;2023-02-11T07:46:40;6.8;;;1.5;;
28455;SDS011;15682;56.742;38.866;2023-02-11T07:48:41;11.3;;;1.8;;
28455;SDS011;15682;56.742;38.866;2023-02-11T07:50:40;7.5;;;1.4;;
28455;SDS011;15682;56.742;38.866;2023-02-11T07:52:40;8.4;;;1.3;;
28455;SDS011;15682;56.742;38.866;2023-02-11T07:54:40;6.5;;;1.6;;
28455;SDS011;15682;56.742;38.866;2023-02-11T07:56:40;6.0;;;1.2;;
28455;SDS011;15682;56.742;38.866;2023-02-11T07:58:40;13.8;;;2.2;;
28455;SDS011;15682;56.742;38.866;2023-02-11T08:00:39;6.3;;;1.4;;
28455;SDS011;15682;56.742;38.866;2023-02-11T08:02:39;8.9;;;1.9;;
28455;SDS011;15682;56.742;38.866;2023-02-11T08:04:39;11.0;;;1.6;;
28455;SDS011;15682;56.742;38.866;2023-02-11T08:06:40;5.7;;;1.3;;
28455;SDS011;15682;56.742;38.866;2023-02-11T08:08:40;5.9;;;1.2;;
28455;SDS011;15682;56.742;38.866;2023-02-11T08:10:39;5.0;;;1.2;;
28455;SDS011;15682;56.742;38.866;2023-02-11T08:12:39;7.3;;;1.5;;
28455;SDS011;15682;56.742;38.866;2023-02-11T08:14:39;6.9;;;1.5;;
28455;SDS011;15682;56.742;38.866;2023-02-11T08:16:39;8.5;;;1.7;;
28455;SDS011;15682;56.742;38.866;2023-02-11T08:18:39;6.6;;;1.5;;
28455;SDS011;15682;56.742;38.866;2023-02-11T08:20:39;11.4;;;2.0;;
28455;SDS011;15682;56.742;38.866;2023-02-11T08:22:39;9.3;;;1.6;;
28455;SDS011;15682;56.742;38.866;2023-02-11T08:24:38;10.0;;;1.7;;
28455;SDS011;15682;56.742;38.866;2023-02-11T08:26:39;7.2;;;1.5;;
28455;SDS011;15682;56.742;38.866;2023-02-11T08:28:39;7.1;;;1.3;;
28455;SDS011;15682;56.742;38.866;2023-02-11T08:30:38;6.9;;;1.5;;
28455;SDS011;15682;56.742;38.866;2023-02-11T08:32:38;10.1;;;1.9;;
28455;SDS011;15682;56.742;38.866;2023-02-11T08:34:38;7.4;;;1.6;;
28455;SDS011;15682;56.742;38.866;2023-02-11T08:36:39;8.6;;;1.9;;
28455;SDS011;15682;56.742;38.866;2023-02-11T08:38:38;6.0;;;1.6;;
28455;SDS011;15682;56.742;38.866;2023-02-11T08:40:38;8.4;;;1.8;;
28455;SDS011;15682;56.742;38.866;2023-02-11T08:42:38;8.6;;;1.9;;
28455;SDS011;15682;56.742;38.866;2023-02-11T08:44:38;31.6;;;14.8;;
28455;SDS011;15682;56.742;38.866;2023-02-11T08:46:38;6.9;;;2.5;;
28455;SDS011;15682;56.742;38.866;2023-02-11T08:48:37;6.5;;;1.7;;
28455;SDS011;15682;56.742;38.866;2023-02-11T08:50:37;7.3;;;1.8;;
28455;SDS011;15682;56.742;38.866;2023-02-11T08:52:37;7.2;;;1.9;;
28455;SDS011;15682;56.742;38.866;2023-02-11T08:54:37;9.2;;;1.8;;
28455;SDS011;15682;56.742;38.866;2023-02-11T08:56:37;7.8;;;2.2;;
28455;SDS011;15682;56.742;38.866;2023-02-11T08:58:37;8.4;;;2.0;;
28455;SDS011;15682;56.742;38.866;2023-02-11T09:00:37;10.6;;;2.2;;
28455;SDS011;15682;56.742;38.866;2023-02-11T09:02:37;9.6;;;2.2;;
28455;SDS011;15682;56.742;38.866;2023-02-11T09:04:37;7.7;;;2.6;;
28455;SDS011;15682;56.742;38.866;2023-02-11T09:06:37;9.6;;;2.3;;
28455;SDS011;15682;56.742;38.866;2023-02-11T09:08:37;9.4;;;2.9;;
28455;SDS011;15682;56.742;38.866;2023-02-11T09:10:37;8.0;;;2.1;;
28455;SDS011;15682;56.742;38.866;2023-02-11T09:12:36;8.1;;;2.1;;
28455;SDS011;15682;56.742;38.866;2023-02-11T09:14:36;13.0;;;2.5;;
28455;SDS011;15682;56.742;38.866;2023-02-11T09:16:36;8.4;;;2.3;;
28455;SDS011;15682;56.742;38.866;2023-02-11T09:18:36;11.7;;;2.4;;
28455;SDS011;15682;56.742;38.866;2023-02-11T09:20:36;10.7;;;2.6;;
28455;SDS011;15682;56.742;38.866;2023-02-11T09:22:36;9.9;;;2.8;;
28455;SDS011;15682;56.742;38.866;2023-02-11T09:24:36;11.4;;;2.4;;
28455;SDS011;15682;56.742;38.866;2023-02-11T09:26:36;9.0;;;2.5;;
28455;SDS011;15682;56.742;38.866;2023-02-11T09:28:36;8.5;;;2.9;;
28455;SDS011;15682;56.742;38.866;2023-02-11T09:30:36;19.3;;;6.9;;
28455;SDS011;15682;56.742;38.866;2023-02-11T09:32:35;13.6;;;5.3;;
28455;SDS011;15682;56.742;38.866;2023-02-11T09:34:35;15.4;;;4.4;;
28455;SDS011;15682;56.742;38.866;2023-02-11T09:36:36;13.6;;;2.8;;
28455;SDS011;15682;56.742;38.866;2023-02-11T09:38:35;5.9;;;2.1;;
28455;SDS011;15682;56.742;38.866;2023-02-11T09:40:35;8.0;;;2.1;;
28455;SDS011;15682;56.742;38.866;2023-02-11T09:42:37;9.2;;;2.3;;
28455;SDS011;15682;56.742;38.866;2023-02-11T09:44:35;10.3;;;2.8;;
28455;SDS011;15682;56.742;38.866;2023-02-11T09:46:35;9.4;;;2.2;;
28455;SDS011;15682;56.742;38.866;2023-02-11T09:48:36;9.3;;;2.3;;
28455;SDS011;15682;56.742;38.866;2023-02-11T09:50:36;8.5;;;2.3;;
28455;SDS011;15682;56.742;38.866;2023-02-11T09:52:36;6.7;;;1.8;;
28455;SDS011;15682;56.742;38.866;2023-02-11T09:54:35;9.2;;;2.3;;
28455;SDS011;15682;56.742;38.866;2023-02-11T09:56:34;8.4;;;2.3;;
28455;SDS011;15682;56.742;38.866;2023-02-11T09:58:35;6.6;;;2.2;;
28455;SDS011;15682;56.742;38.866;2023-02-11T10:00:36;8.4;;;2.0;;
28455;SDS011;15682;56.742;38.866;2023-02-11T10:02:35;8.3;;;2.1;;
28455;SDS011;15682;56.742;38.866;2023-02-11T10:04:40;12.7;;;2.5;;
28455;SDS011;15682;56.742;38.866;2023-02-11T10:06:36;8.1;;;2.6;;
28455;SDS011;15682;56.742;38.866;2023-02-11T10:08:36;9.6;;;2.5;;
28455;SDS011;15682;56.742;38.866;2023-02-11T10:10:37;9.5;;;2.4;;
28455;SDS011;15682;56.742;38.866;2023-02-11T10:12:38;8.4;;;2.3;;
28455;SDS011;15682;56.742;38.866;2023-02-11T10:14:41;8.4;;;2.4;;
28455;SDS011;15682;56.742;38.866;2023-02-11T10:16:38;8.6;;;2.3;;
28455;SDS011;15682;56.742;38.866;2023-02-11T10:18:37;9.4;;;2.5;;
28455;SDS011;15682;56.742;38.866;2023-02-11T10:20:34;10.4;;;2.6;;
28455;SDS011;15682;56.742;38.866;2023-02-11T10:22:34;8.6;;;2.5;;
28455;SDS011;15682;56.742;38.866;2023-02-11T10:24:33;8.5;;;2.3;;
28455;SDS011;15682;56.742;38.866;2023-02-11T10:26:33;8.9;;;2.6;;
28455;SDS011;15682;56.742;38.866;2023-02-11T10:28:34;10.2;;;2.5;;
28455;SDS011;15682;56.742;38.866;2023-02-11T10:30:35;8.2;;;2.1;;
28455;SDS011;15682;56.742;38.866;2023-02-11T10:32:34;9.8;;;2.5;;
28455;SDS011;15682;56.742;38.866;2023-02-11T10:34:33;9.5;;;2.4;;
28455;SDS011;15682;56.742;38.866;2023-02-11T10:36:34;8.9;;;2.3;;
28455;SDS011;15682;56.742;38.866;2023-02-11T10:38:33;10.3;;;2.5;;
28455;SDS011;15682;56.742;38.866;2023-02-11T10:40:33;8.6;;;2.4;;
28455;SDS011;15682;56.742;38.866;2023-02-11T10:42:33;10.6;;;2.8;;
28455;SDS011;15682;56.742;38.866;2023-02-11T10:44:34;10.3;;;2.5;;
28455;SDS011;15682;56.742;38.866;2023-02-11T10:46:33;9.6;;;2.6;;
28455;SDS011;15682;56.742;38.866;2023-02-11T10:48:37;10.5;;;2.9;;
28455;SDS011;15682;56.742;38.866;2023-02-11T10:50:32;13.3;;;3.4;;
28455;SDS011;15682;56.742;38.866;2023-02-11T10:52:32;12.9;;;3.0;;
28455;SDS011;15682;56.742;38.866;2023-02-11T10:54:32;10.0;;;2.9;;
28455;SDS011;15682;56.742;38.866;2023-02-11T10:56:33;11.6;;;3.2;;
28455;SDS011;15682;56.742;38.866;2023-02-11T10:58:33;11.1;;;3.2;;
28455;SDS011;15682;56.742;38.866;2023-02-11T11:00:33;14.2;;;3.4;;
28455;SDS011;15682;56.742;38.866;2023-02-11T11:02:33;11.2;;;3.7;;
28455;SDS011;15682;56.742;38.866;2023-02-11T11:04:33;11.8;;;3.2;;
28455;SDS011;15682;56.742;38.866;2023-02-11T11:06:32;13.6;;;3.7;;
28455;SDS011;15682;56.742;38.866;2023-02-11T11:08:39;11.6;;;3.3;;
28455;SDS011;15682;56.742;38.866;2023-02-11T11:10:36;11.2;;;3.3;;
28455;SDS011;15682;56.742;38.866;2023-02-11T11:12:33;14.7;;;3.8;;
28455;SDS011;15682;56.742;38.866;2023-02-11T11:14:31;15.2;;;3.8;;
28455;SDS011;15682;56.742;38.866;2023-02-11T11:16:32;12.4;;;3.8;;
28455;SDS011;15682;56.742;38.866;2023-02-11T11:18:31;16.0;;;4.2;;
28455;SDS011;15682;56.742;38.866;2023-02-11T11:20:31;11.5;;;3.8;;
28455;SDS011;15682;56.742;38.866;2023-02-11T11:22:31;12.0;;;4.4;;
28455;SDS011;15682;56.742;38.866;2023-02-11T11:24:31;12.1;;;4.3;;
28455;SDS011;15682;56.742;38.866;2023-02-11T11:26:38;12.1;;;4.1;;
28455;SDS011;15682;56.742;38.866;2023-02-11T11:28:34;15.7;;;4.5;;
28455;SDS011;15682;56.742;38.866;2023-02-11T11:30:32;11.8;;;4.3;;
28455;SDS011;15682;56.742;38.866;2023-02-11T11:32:31;14.9;;;4.0;;
28455;SDS011;15682;56.742;38.866;2023-02-11T11:34:31;16.9;;;4.4;;
28455;SDS011;15682;56.742;38.866;2023-02-11T11:36:32;12.5;;;4.4;;
28455;SDS011;15682;56.742;38.866;2023-02-11T11:38:31;14.3;;;4.6;;
28455;SDS011;15682;56.742;38.866;2023-02-11T11:40:31;14.9;;;4.5;;
28455;SDS011;15682;56.742;38.866;2023-02-11T11:42:31;16.6;;;4.9;;
28455;SDS011;15682;56.742;38.866;2023-02-11T11:44:31;15.4;;;5.4;;
28455;SDS011;15682;56.742;38.866;2023-02-11T11:46:33;15.4;;;5.2;;
28455;SDS011;15682;56.742;38.866;2023-02-11T11:48:31;14.6;;;5.4;;
28455;SDS011;15682;56.742;38.866;2023-02-11T11:50:31;15.5;;;5.7;;
28455;SDS011;15682;56.742;38.866;2023-02-11T11:52:33;17.3;;;5.7;;
28455;SDS011;15682;56.742;38.866;2023-02-11T11:54:30;20.5;;;5.9;;
28455;SDS011;15682;56.742;38.866;2023-02-11T11:56:31;36.4;;;7.8;;
28455;SDS011;15682;56.742;38.866;2023-02-11T11:58:30;21.4;;;6.1;;
28455;SDS011;15682;56.742;38.866;2023-02-11T12:00:32;16.9;;;5.8;;
28455;SDS011;15682;56.742;38.866;2023-02-11T12:02:43;17.1;;;6.0;;
28455;SDS011;15682;56.742;38.866;2023-02-11T12:04:34;14.5;;;6.0;;
28455;SDS011;15682;56.742;38.866;2023-02-11T12:06:31;22.8;;;7.4;;
28455;SDS011;15682;56.742;38.866;2023-02-11T12:08:31;55.5;;;14.0;;
28455;SDS011;15682;56.742;38.866;2023-02-11T12:10:33;17.4;;;6.9;;
28455;SDS011;15682;56.742;38.866;2023-02-11T12:12:32;48.8;;;10.8;;
28455;SDS011;15682;56.742;38.866;2023-02-11T12:14:31;18.7;;;6.8;;
28455;SDS011;15682;56.742;38.866;2023-02-11T12:16:32;21.0;;;6.5;;
28455;SDS011;15682;56.742;38.866;2023-02-11T12:18:33;16.9;;;6.5;;